Time;durP1;ratioP1;P1;durP2;ratioP2;P2;SDS_P1;SDS_P2;PMS_P1;PMS_P2;Temp;Humidity;BMP_temperature;BMP_pressure;BME280_temperature;BME280_humidity;BME280_pressure;Samples;Min_cycle;Max_cycle;Signal;HPM_P1;HPM_P2
2021/12/16 00:08:52;;;;;;;;;8.25;7.00;;;;;7.45;98.94;103299.47;5023113;28;10467;-69
2021/12/16 00:19:26;;;;;;;;;4.50;3.75;;;;;7.45;99.07;103302.16;4994844;28;10320;-67
2021/12/16 00:31:20;;;;;;;;;9.50;6.75;;;;;7.23;98.85;103297.41;5001181;28;10273;-68
2021/12/16 00:34:00;;;;;;;;;13.75;10.25;;;;;7.21;99.31;103302.91;5009799;28;10575;-68
2021/12/16 00:36:37;;;;;;;;;9.00;9.00;;;;;7.30;99.60;103306.78;5021582;28;10482;-69
2021/12/16 00:39:08;;;;;;;;;9.00;6.00;;;;;7.26;99.52;103311.53;5026671;28;10735;-68
2021/12/16 00:41:36;;;;;;;;;8.00;6.75;;;;;7.22;98.94;103311.84;5017830;28;10420;-68
2021/12/16 00:45:03;;;;;;;;;5.50;5.00;;;;;7.20;99.27;103314.66;5010854;28;10459;-69
2021/12/16 00:47:24;;;;;;;;;7.75;7.75;;;;;7.23;99.30;103314.44;5010971;28;10313;-68
2021/12/16 00:49:47;;;;;;;;;10.00;9.00;;;;;7.23;99.39;103309.03;5008756;28;10527;-68
2021/12/16 00:55:43;;;;;;;;;11.00;8.50;;;;;7.09;98.44;103312.69;5020057;28;10228;-69
2021/12/16 00:57:56;;;;;;;;;7.50;5.25;;;;;7.13;98.94;103307.94;5016405;28;10182;-68
2021/12/16 01:00:26;;;;;;;;;7.75;7.75;;;;;7.13;99.05;103305.25;5016267;28;10464;-69
2021/12/16 01:03:06;;;;;;;;;7.50;7.00;;;;;7.09;98.95;103307.28;5006359;28;11096;-68
2021/12/16 01:42:31;;;;;;;;;7.00;6.00;;;;;6.87;97.58;103347.41;5011118;28;10305;-68
2021/12/16 01:50:29;;;;;;;;;5.75;5.75;;;;;6.83;97.68;103364.75;5035896;28;10405;-69
2021/12/16 01:56:03;;;;;;;;;4.50;4.00;;;;;6.77;97.63;103365.16;5017280;28;10333;-69
2021/12/16 01:58:33;;;;;;;;;5.25;5.25;;;;;6.72;97.55;103368.16;4995947;28;10285;-70
2021/12/16 02:01:17;;;;;;;;;2.00;2.00;;;;;6.69;97.61;103371.06;5017943;28;10464;-69
2021/12/16 02:03:53;;;;;;;;;8.25;7.50;;;;;6.65;97.88;103374.91;4993729;28;10329;-69
2021/12/16 02:12:39;;;;;;;;;4.75;4.75;;;;;6.62;98.14;103369.72;5010970;28;10545;-70
2021/12/16 02:34:44;;;;;;;;;5.50;5.50;;;;;6.50;98.08;103386.69;5004179;28;10594;-68
2021/12/16 02:37:20;;;;;;;;;2.50;2.50;;;;;6.51;98.31;103383.03;5022445;28;10367;-69
2021/12/16 02:39:52;;;;;;;;;3.00;2.00;;;;;6.54;98.30;103393.59;4997875;28;10384;-69
2021/12/16 02:42:39;;;;;;;;;5.50;5.50;;;;;6.52;98.22;103391.97;5012500;28;10504;-67
2021/12/16 02:50:42;;;;;;;;;6.50;5.75;;;;;6.39;97.68;103389.19;5023968;28;11098;-69
2021/12/16 02:53:12;;;;;;;;;5.50;4.25;;;;;6.39;98.08;103386.50;5013036;28;10539;-68
2021/12/16 02:55:41;;;;;;;;;5.75;4.75;;;;;6.35;97.86;103384.97;5018257;28;10488;-69
2021/12/16 02:58:08;;;;;;;;;5.25;5.25;;;;;6.34;97.82;103383.25;5023649;28;11244;-68
2021/12/16 03:00:47;;;;;;;;;5.75;5.75;;;;;6.32;97.88;103388.75;5013273;28;10577;-67
2021/12/16 03:03:14;;;;;;;;;4.75;4.00;;;;;6.31;97.73;103384.31;5016435;28;10509;-68
2021/12/16 03:05:42;;;;;;;;;5.25;5.00;;;;;6.31;97.50;103384.31;5022935;28;10498;-67
2021/12/16 03:08:09;;;;;;;;;9.00;8.25;;;;;6.32;97.74;103390.56;5016376;28;10549;-69
2021/12/16 03:11:03;;;;;;;;;4.00;4.00;;;;;6.27;97.91;103390.00;5002944;28;10673;-67
2021/12/16 03:13:35;;;;;;;;;4.75;4.75;;;;;6.26;98.02;103378.38;5030615;28;10616;-68
2021/12/16 03:19:09;;;;;;;;;4.75;4.25;;;;;6.25;98.17;103379.34;5023028;28;10470;-68
2021/12/16 03:21:27;;;;;;;;;6.75;3.50;;;;;6.29;98.51;103388.94;5015524;28;10630;-68
2021/12/16 03:32:57;;;;;;;;;6.25;4.50;;;;;6.25;98.70;103389.25;5018752;28;10618;-68
2021/12/16 03:38:02;;;;;;;;;2.00;2.00;;;;;6.25;98.97;103391.94;5013535;28;10677;-68
2021/12/16 03:40:45;;;;;;;;;6.00;4.00;;;;;6.23;99.29;103386.66;5013166;28;10614;-68
2021/12/16 03:43:20;;;;;;;;;6.00;5.25;;;;;6.20;99.38;103386.84;5014104;28;10549;-67
2021/12/16 03:48:55;;;;;;;;;5.00;5.00;;;;;6.27;100.00;103387.31;5027173;28;10711;-68
2021/12/16 03:51:32;;;;;;;;;5.25;2.75;;;;;6.27;100.00;103387.31;5007129;28;10598;-69
2021/12/16 03:54:17;;;;;;;;;8.00;5.00;;;;;6.21;100.00;103372.44;5016635;28;10619;-69
2021/12/16 03:57:00;;;;;;;;;6.00;5.00;;;;;6.25;100.00;103367.72;5020551;28;10504;-68
2021/12/16 03:59:31;;;;;;;;;3.50;2.00;;;;;6.23;100.00;103372.34;4995500;28;10675;-68
2021/12/16 04:02:22;;;;;;;;;3.00;3.00;;;;;6.17;100.00;103377.13;5013497;28;10450;-69
2021/12/16 04:04:55;;;;;;;;;2.50;2.50;;;;;6.19;100.00;103385.09;4999003;28;11367;-69
2021/12/16 04:07:31;;;;;;;;;9.00;4.00;;;;;6.16;100.00;103391.53;5032828;28;10751;-69
2021/12/16 04:10:21;;;;;;;;;3.00;3.00;;;;;6.11;100.00;103399.03;5011931;28;10625;-69
2021/12/16 04:12:50;;;;;;;;;3.50;1.75;;;;;6.09;100.00;103394.72;5032187;28;10673;-68
2021/12/16 04:15:17;;;;;;;;;1.75;1.00;;;;;6.08;100.00;103391.16;5016391;28;11214;-69
2021/12/16 04:17:49;;;;;;;;;3.00;3.00;;;;;6.09;100.00;103392.91;5010339;28;10494;-70
2021/12/16 04:20:16;;;;;;;;;2.00;2.00;;;;;6.08;100.00;103391.16;4997435;28;10521;-68
2021/12/16 04:22:45;;;;;;;;;2.00;1.00;;;;;6.06;100.00;103386.84;5020987;28;10617;-69
2021/12/16 04:25:22;;;;;;;;;2.00;2.00;;;;;6.04;100.00;103402.22;5001645;28;10656;-69
2021/12/16 04:27:53;;;;;;;;;2.00;2.00;;;;;6.03;100.00;103405.88;5008999;28;11481;-69
2021/12/16 04:30:23;;;;;;;;;4.00;4.00;;;;;6.00;100.00;103409.63;5014271;28;10555;-69
2021/12/16 04:32:50;;;;;;;;;3.00;3.00;;;;;5.99;100.00;103401.66;5013279;28;10549;-69
2021/12/16 04:35:18;;;;;;;;;2.25;2.25;;;;;5.96;100.00;103410.78;5015003;28;10615;-68
2021/12/16 04:37:50;;;;;;;;;1.75;1.75;;;;;5.91;100.00;103403.94;5007450;28;10694;-69
2021/12/16 04:40:19;;;;;;;;;2.25;2.25;;;;;5.91;100.00;103409.31;5001454;28;10369;-68
2021/12/16 04:42:53;;;;;;;;;4.00;4.00;;;;;5.84;100.00;103398.91;5015589;28;10664;-69
2021/12/16 04:45:20;;;;;;;;;1.75;1.75;;;;;5.80;100.00;103401.88;5009173;28;10474;-68
2021/12/16 04:47:50;;;;;;;;;2.25;2.25;;;;;5.82;100.00;103406.22;4999037;28;10541;-67
2021/12/16 04:50:17;;;;;;;;;2.75;1.50;;;;;5.82;100.00;103402.66;4998740;28;10537;-70
2021/12/16 04:52:44;;;;;;;;;1.75;1.50;;;;;5.79;100.00;103413.59;5009128;28;10513;-70
2021/12/16 04:55:14;;;;;;;;;1.50;1.00;;;;;5.81;100.00;103409.00;5017812;28;10372;-70
2021/12/16 04:57:44;;;;;;;;;4.00;2.00;;;;;5.72;99.82;103412.25;5013882;28;10529;-70
2021/12/16 05:00:17;;;;;;;;;3.00;3.00;;;;;5.73;99.99;103422.06;5010692;28;10363;-69
2021/12/16 05:03:00;;;;;;;;;5.75;4.50;;;;;5.72;99.82;103423.00;5014853;28;10639;-70
2021/12/16 05:05:35;;;;;;;;;3.00;3.00;;;;;5.73;100.00;103430.97;5000603;28;10756;-70
2021/12/16 05:08:02;;;;;;;;;2.00;2.00;;;;;5.75;99.85;103437.13;5014410;28;10637;-70
2021/12/16 05:10:54;;;;;;;;;2.00;2.00;;;;;5.67;99.44;103431.31;5007963;28;10569;-67
2021/12/16 05:13:24;;;;;;;;;5.25;3.50;;;;;5.67;99.61;103433.16;5005970;28;10679;-69
2021/12/16 05:15:53;;;;;;;;;4.50;2.50;;;;;5.66;99.63;103434.97;5015202;28;10745;-70
2021/12/16 05:18:25;;;;;;;;;2.00;2.00;;;;;5.60;99.66;103435.34;5015228;28;10593;-70
2021/12/16 05:20:57;;;;;;;;;4.00;4.00;;;;;5.61;99.90;103434.41;5013895;28;10675;-70
2021/12/16 05:26:17;;;;;;;;;2.00;2.00;;;;;5.56;99.27;103428.44;5020505;28;10683;-67
2021/12/16 05:28:58;;;;;;;;;6.00;3.50;;;;;5.52;99.42;103432.28;5013848;28;11373;-70
2021/12/16 05:31:29;;;;;;;;;4.00;2.00;;;;;5.52;99.43;103441.19;5012182;28;10762;-71
2021/12/16 05:33:59;;;;;;;;;4.00;1.75;;;;;5.53;99.51;103436.69;5031285;28;11426;-69
2021/12/16 05:36:28;;;;;;;;;3.00;3.00;;;;;5.56;99.96;103436.50;5030673;28;10619;-69
2021/12/16 05:38:55;;;;;;;;;4.00;2.50;;;;;5.62;99.89;103440.63;5007144;28;10618;-69
2021/12/16 05:41:25;;;;;;;;;1.00;1.00;;;;;5.62;99.64;103438.81;5013035;28;11321;-69
2021/12/16 05:43:55;;;;;;;;;4.00;4.00;;;;;5.66;99.61;103439.47;5010278;28;10590;-69
2021/12/16 05:46:25;;;;;;;;;2.00;2.00;;;;;5.64;99.45;103444.09;5009084;28;11318;-70
2021/12/16 05:48:54;;;;;;;;;2.50;2.50;;;;;5.63;99.25;103453.09;5008731;28;10730;-69
2021/12/16 05:51:35;;;;;;;;;5.00;5.00;;;;;5.71;99.57;103465.16;4996414;28;10744;-69
2021/12/16 05:54:04;;;;;;;;;8.00;6.00;;;;;5.70;99.55;103458.03;4990504;28;10687;-69
2021/12/16 05:56:40;;;;;;;;;5.50;5.00;;;;;5.71;99.73;103453.53;5006306;28;11614;-70
2021/12/16 05:59:08;;;;;;;;;5.00;4.00;;;;;5.76;99.82;103448.75;4988591;28;10617;-69
2021/12/16 06:01:39;;;;;;;;;3.50;3.50;;;;;5.77;99.93;103442.41;4989578;28;10685;-70
2021/12/16 06:04:06;;;;;;;;;5.00;2.25;;;;;5.84;100.00;103443.75;5009742;28;10899;-70
2021/12/16 06:06:34;;;;;;;;;6.00;5.25;;;;;5.79;100.00;103443.16;5008943;28;11475;-69
2021/12/16 06:09:04;;;;;;;;;5.00;5.00;;;;;5.78;100.00;103442.31;5017839;28;10768;-69
2021/12/16 06:11:32;;;;;;;;;5.75;5.25;;;;;5.78;100.00;103453.06;5028938;28;10930;-69
2021/12/16 06:27:48;;;;;;;;;7.50;5.00;;;;;5.65;99.78;103480.75;5004736;28;10774;-71
2021/12/16 06:30:20;;;;;;;;;6.00;6.00;;;;;5.64;99.93;103489.78;5005665;28;10616;-69
2021/12/16 06:32:46;;;;;;;;;5.00;5.00;;;;;5.62;99.83;103480.94;5003227;28;10695;-69
2021/12/16 06:35:15;;;;;;;;;7.25;7.25;;;;;5.55;99.83;103481.31;4993880;28;11314;-69
2021/12/16 06:37:41;;;;;;;;;10.00;9.50;;;;;5.54;99.71;103487.66;5002837;28;10770;-69
2021/12/16 06:40:26;;;;;;;;;10.75;7.00;;;;;5.51;99.54;103489.66;5028982;28;11014;-69
2021/12/16 06:43:03;;;;;;;;;11.25;8.50;;;;;5.51;99.52;103493.22;5013380;28;10944;-68
2021/12/16 06:45:35;;;;;;;;;7.00;5.00;;;;;5.52;99.45;103503.00;5010041;28;10859;-69
2021/12/16 06:48:12;;;;;;;;;10.50;6.50;;;;;5.53;99.32;103511.94;5019645;28;10850;-68
2021/12/16 06:53:08;;;;;;;;;9.00;6.00;;;;;5.56;99.47;103514.44;5028697;28;11420;-68
2021/12/16 06:55:44;;;;;;;;;3.50;3.50;;;;;5.51;99.38;103516.53;5033032;28;11945;-68
2021/12/16 07:00:45;;;;;;;;;7.00;6.75;;;;;5.46;99.06;103532.06;5015161;28;10770;-67
2021/12/16 07:03:22;;;;;;;;;8.00;7.00;;;;;5.42;99.08;103533.16;5026443;28;10829;-68
2021/12/16 07:05:53;;;;;;;;;6.00;4.50;;;;;5.45;99.33;103535.66;5012251;28;11681;-68
2021/12/16 07:08:22;;;;;;;;;7.25;7.00;;;;;5.41;99.11;103534.13;5016044;28;10755;-69
2021/12/16 07:10:52;;;;;;;;;5.25;5.25;;;;;5.46;99.26;103538.28;5024139;28;10743;-69
2021/12/16 07:13:28;;;;;;;;;7.00;6.00;;;;;5.48;99.50;103539.06;5000974;28;10842;-70
2021/12/16 07:15:57;;;;;;;;;8.75;4.50;;;;;5.44;99.07;103542.00;5012454;28;10904;-70
2021/12/16 07:18:24;;;;;;;;;4.25;4.25;;;;;5.40;99.09;103548.50;5010762;28;11063;-70
2021/12/16 07:20:50;;;;;;;;;7.50;7.50;;;;;5.41;99.09;103550.22;5020020;28;11600;-67
2021/12/16 07:23:18;;;;;;;;;7.25;6.50;;;;;5.34;98.64;103554.25;5010608;28;11513;-69
2021/12/16 07:25:45;;;;;;;;;8.50;6.00;;;;;5.39;98.76;103558.38;5011826;28;10939;-70
2021/12/16 07:28:11;;;;;;;;;6.00;6.00;;;;;5.31;98.62;103559.78;5012751;28;11002;-68
2021/12/16 07:30:41;;;;;;;;;7.25;7.00;;;;;5.33;98.57;103569.50;5030732;28;10921;-69
2021/12/16 07:33:08;;;;;;;;;11.00;8.00;;;;;5.33;98.66;103565.94;5023665;28;11537;-69
2021/12/16 07:35:36;;;;;;;;;7.75;6.00;;;;;5.31;98.55;103568.72;5010944;28;10993;-70
2021/12/16 07:38:04;;;;;;;;;12.25;8.25;;;;;5.31;98.53;103565.16;4999325;28;10992;-70
2021/12/16 07:40:33;;;;;;;;;9.00;6.00;;;;;5.29;98.60;103570.63;4991114;28;11040;-69
2021/12/16 07:45:37;;;;;;;;;9.25;9.00;;;;;5.28;98.44;103576.09;5020357;28;10869;-69
2021/12/16 07:48:04;;;;;;;;;9.00;6.00;;;;;5.38;98.73;103594.25;5013415;28;10895;-70
2021/12/16 07:50:31;;;;;;;;;7.00;5.00;;;;;5.42;98.82;103595.81;5010382;28;10977;-70
2021/12/16 07:52:58;;;;;;;;;4.00;4.00;;;;;5.40;98.52;103586.97;5011816;28;10889;-68
2021/12/16 07:55:24;;;;;;;;;4.75;3.50;;;;;5.51;98.78;103586.38;5009218;28;10822;-68
2021/12/16 07:57:50;;;;;;;;;15.25;6.25;;;;;5.52;98.73;103590.81;5010177;28;10712;-68
2021/12/16 08:00:24;;;;;;;;;9.75;8.00;;;;;5.46;98.42;103608.16;5008272;28;10958;-68
2021/12/16 08:02:51;;;;;;;;;4.00;4.00;;;;;5.50;98.69;103619.59;5008912;28;10927;-68
2021/12/16 08:05:22;;;;;;;;;5.50;5.50;;;;;5.52;98.50;103620.34;5007965;28;10842;-68
2021/12/16 08:07:49;;;;;;;;;9.50;6.50;;;;;5.54;98.53;103623.81;5007571;28;10716;-68
2021/12/16 08:10:19;;;;;;;;;7.00;6.00;;;;;5.54;98.35;103622.00;5005662;28;11319;-69
2021/12/16 08:12:46;;;;;;;;;5.50;5.00;;;;;5.56;98.15;103617.41;5007573;28;10798;-68
2021/12/16 08:15:15;;;;;;;;;8.50;6.50;;;;;5.50;98.03;103617.75;5009488;28;10857;-68
2021/12/16 08:17:42;;;;;;;;;10.00;10.00;;;;;5.56;98.48;103622.78;5007481;28;10815;-70
2021/12/16 08:20:11;;;;;;;;;10.00;7.25;;;;;5.55;98.28;103626.41;5010562;28;10896;-68
2021/12/16 08:22:37;;;;;;;;;11.50;8.50;;;;;5.56;98.21;103627.28;5007013;28;10772;-69
2021/12/16 08:25:05;;;;;;;;;6.50;5.50;;;;;5.58;98.19;103633.44;5021669;28;13197;-71
2021/12/16 08:27:33;;;;;;;;;8.25;8.25;;;;;5.59;98.03;103634.31;5007379;28;10927;-69
2021/12/16 08:30:00;;;;;;;;;9.50;7.25;;;;;5.64;98.16;103641.13;5008521;28;10767;-69
2021/12/16 08:32:26;;;;;;;;;6.75;6.75;;;;;5.70;98.31;103647.97;5016344;28;10800;-69
2021/12/16 08:34:53;;;;;;;;;5.50;5.00;;;;;5.73;98.25;103654.06;5009716;28;10769;-70
2021/12/16 08:37:24;;;;;;;;;5.50;5.50;;;;;5.80;98.38;103651.88;5014250;28;10706;-69
2021/12/16 08:39:52;;;;;;;;;6.00;6.00;;;;;5.87;98.15;103651.44;5025907;28;10626;-69
2021/12/16 08:42:18;;;;;;;;;6.00;6.00;;;;;5.95;98.68;103645.66;5016280;28;11434;-70
2021/12/16 08:44:45;;;;;;;;;5.00;4.50;;;;;5.91;98.04;103652.16;5009988;28;10692;-69
2021/12/16 08:47:15;;;;;;;;;9.50;7.50;;;;;5.92;98.20;103650.31;5007378;28;10811;-68
2021/12/16 08:49:42;;;;;;;;;10.25;8.00;;;;;5.98;98.52;103650.00;5005719;28;11542;-68
2021/12/16 08:52:14;;;;;;;;;9.00;6.75;;;;;6.05;98.07;103662.09;5011777;28;10906;-69
2021/12/16 08:54:41;;;;;;;;;13.50;7.00;;;;;6.06;97.96;103662.00;5023690;28;10764;-69
2021/12/16 08:57:11;;;;;;;;;7.50;7.50;;;;;6.08;98.06;103665.47;5022010;28;10639;-70
2021/12/16 08:59:37;;;;;;;;;8.00;8.00;;;;;6.12;98.30;103668.84;5008479;28;10713;-70
2021/12/16 09:02:07;;;;;;;;;11.75;8.50;;;;;6.10;98.19;103674.31;5020254;28;11038;-71
2021/12/16 09:04:36;;;;;;;;;8.00;8.00;;;;;6.23;98.61;103681.69;5008885;28;10701;-69
2021/12/16 09:07:05;;;;;;;;;6.00;6.00;;;;;6.30;98.51;103677.66;5006583;28;10706;-70
2021/12/16 09:09:35;;;;;;;;;6.25;6.00;;;;;6.42;98.92;103679.59;5013096;28;10889;-70
2021/12/16 09:12:11;;;;;;;;;4.25;4.25;;;;;6.47;98.47;103678.41;5023727;28;10671;-70
2021/12/16 09:14:41;;;;;;;;;6.50;5.00;;;;;7.07;100.00;103680.09;5010401;28;11113;-70
2021/12/16 09:17:12;;;;;;;;;7.00;7.00;;;;;6.77;98.97;103691.81;5004670;28;10743;-70
2021/12/16 09:19:48;;;;;;;;;7.25;6.00;;;;;6.79;98.40;103686.31;5005370;28;10853;-69
2021/12/16 09:22:16;;;;;;;;;10.25;6.25;;;;;6.81;98.06;103680.84;5005685;28;10718;-70
2021/12/16 09:24:45;;;;;;;;;6.25;6.00;;;;;6.88;98.25;103683.06;5005766;28;10710;-70
2021/12/16 09:27:12;;;;;;;;;5.75;5.75;;;;;6.99;97.95;103685.09;5007159;28;10622;-70
2021/12/16 09:29:39;;;;;;;;;4.00;4.00;;;;;7.08;98.07;103689.91;5004895;28;11579;-70
2021/12/16 09:32:07;;;;;;;;;5.25;5.00;;;;;7.14;98.55;103686.81;5004561;28;10473;-69
2021/12/16 09:34:39;;;;;;;;;2.50;2.50;;;;;7.14;97.96;103691.34;5004747;28;10421;-69
2021/12/16 09:37:06;;;;;;;;;2.50;2.50;;;;;7.19;98.37;103681.13;5008000;28;10559;-69
2021/12/16 09:39:33;;;;;;;;;6.75;5.75;;;;;7.30;99.55;103679.50;5008530;28;11244;-69
2021/12/16 09:42:00;;;;;;;;;7.50;7.50;;;;;7.37;99.23;103682.66;5003989;28;10378;-69
2021/12/16 09:44:29;;;;;;;;;7.50;7.00;;;;;7.45;99.51;103684.88;5003550;28;10399;-70
2021/12/16 09:47:01;;;;;;;;;5.75;5.50;;;;;7.69;100.00;103681.47;5003759;28;10346;-69
2021/12/16 09:49:28;;;;;;;;;6.50;4.50;;;;;7.77;100.00;103680.09;5005210;28;10440;-69
2021/12/16 09:51:55;;;;;;;;;6.00;5.00;;;;;7.84;100.00;103676.00;5003998;28;10337;-69
2021/12/16 09:54:26;;;;;;;;;9.00;4.00;;;;;7.97;100.00;103682.34;5005671;28;10543;-69
2021/12/16 09:56:54;;;;;;;;;21.25;17.75;;;;;8.00;100.00;103692.91;5005613;28;10543;-69
2021/12/16 09:59:23;;;;;;;;;14.25;14.25;;;;;8.03;100.00;103692.72;5005036;28;10793;-69
2021/12/16 10:01:51;;;;;;;;;16.25;13.50;;;;;8.17;100.00;103689.06;5002699;28;10647;-70
2021/12/16 10:04:21;;;;;;;;;14.50;14.00;;;;;8.35;100.00;103687.00;5003975;28;10609;-70
2021/12/16 10:06:52;;;;;;;;;15.75;11.50;;;;;8.44;100.00;103692.66;5006552;28;10513;-70
2021/12/16 10:09:19;;;;;;;;;12.00;9.25;;;;;8.59;100.00;103691.59;5008275;28;10613;-69
2021/12/16 10:11:48;;;;;;;;;13.50;9.75;;;;;8.61;100.00;103694.19;5006049;28;10537;-68
2021/12/16 10:14:30;;;;;;;;;12.00;12.00;;;;;8.68;100.00;103694.63;5006002;28;11181;-70
2021/12/16 10:19:46;;;;;;;;;11.25;9.75;;;;;8.62;100.00;103704.00;5011713;28;10256;-70
2021/12/16 10:22:34;;;;;;;;;12.75;12.75;;;;;8.70;100.00;103698.09;5007655;28;11286;-70
2021/12/16 10:25:19;;;;;;;;;17.75;14.75;;;;;8.60;100.00;103700.53;5003776;28;10581;-69
2021/12/16 10:28:10;;;;;;;;;20.25;16.75;;;;;8.66;100.00;103704.66;5003649;28;11602;-69
2021/12/16 10:30:40;;;;;;;;;16.25;13.75;;;;;8.74;100.00;103702.31;5004120;28;10540;-69
2021/12/16 10:33:14;;;;;;;;;18.25;17.75;;;;;8.70;100.00;103707.06;5002545;28;10495;-71
2021/12/16 10:35:41;;;;;;;;;14.75;14.25;;;;;8.71;100.00;103703.38;4990987;28;10435;-69
2021/12/16 10:38:08;;;;;;;;;16.25;14.25;;;;;8.70;100.00;103706.19;5002838;28;10431;-70
2021/12/16 10:40:40;;;;;;;;;16.00;14.75;;;;;8.73;100.00;103705.97;5005849;28;10404;-68
2021/12/16 10:43:27;;;;;;;;;14.50;13.50;;;;;8.77;100.00;103702.94;5007357;28;10432;-68
2021/12/16 10:46:05;;;;;;;;;15.25;12.75;;;;;8.71;100.00;103700.69;5002064;28;10529;-68
2021/12/16 10:48:36;;;;;;;;;15.50;15.50;;;;;8.70;100.00;103701.66;5005749;28;10461;-70
2021/12/16 10:51:03;;;;;;;;;13.00;12.00;;;;;8.68;100.00;103702.75;5009321;28;10231;-68
2021/12/16 10:53:41;;;;;;;;;11.25;11.00;;;;;8.68;100.00;103710.84;5006017;28;10346;-67
2021/12/16 10:56:08;;;;;;;;;12.00;12.00;;;;;8.68;100.00;103706.31;5019939;28;10321;-70
2021/12/16 10:58:51;;;;;;;;;14.50;14.50;;;;;8.70;100.00;103709.75;5002413;28;10211;-68
2021/12/16 11:01:35;;;;;;;;;18.75;17.75;;;;;8.72;100.00;103712.34;5006857;28;10389;-70
2021/12/16 11:04:03;;;;;;;;;14.50;12.25;;;;;8.74;100.00;103713.97;5004133;28;10561;-68
2021/12/16 11:06:37;;;;;;;;;19.50;18.75;;;;;8.78;100.00;103715.50;5025830;28;10336;-69
2021/12/16 11:09:22;;;;;;;;;13.50;13.25;;;;;8.87;100.00;103714.84;5008235;28;10539;-70
2021/12/16 11:12:04;;;;;;;;;12.25;11.25;;;;;8.94;100.00;103716.16;5007066;28;10332;-68
2021/12/16 11:14:31;;;;;;;;;17.50;17.50;;;;;8.97;100.00;103706.09;5009229;28;11066;-70
2021/12/16 11:17:00;;;;;;;;;18.75;16.25;;;;;9.06;100.00;103709.00;5010289;28;10815;-70
2021/12/16 11:19:58;;;;;;;;;23.75;15.00;;;;;9.11;100.00;103706.84;5021445;28;10699;-69
2021/12/16 11:22:33;;;;;;;;;20.25;18.25;;;;;9.10;100.00;103702.41;5008006;28;10641;-69
2021/12/16 11:25:23;;;;;;;;;21.00;19.00;;;;;9.22;100.00;103708.78;5007676;28;10595;-70
2021/12/16 11:28:04;;;;;;;;;18.00;15.75;;;;;9.31;100.00;103704.56;5021562;28;10678;-71
2021/12/16 11:30:46;;;;;;;;;15.75;13.50;;;;;9.36;100.00;103707.78;5011649;28;10637;-69
2021/12/16 11:33:39;;;;;;;;;17.75;17.25;;;;;9.45;100.00;103704.44;5028393;28;10337;-70
2021/12/16 11:36:23;;;;;;;;;19.75;18.75;;;;;9.59;100.00;103706.13;5018631;28;10489;-69
2021/12/16 11:38:54;;;;;;;;;14.50;14.50;;;;;9.64;100.00;103703.94;5014838;28;10412;-70
2021/12/16 11:41:41;;;;;;;;;20.75;16.25;;;;;9.74;100.00;103707.72;5014031;28;10419;-70
2021/12/16 11:44:21;;;;;;;;;17.75;12.75;;;;;9.77;100.00;103705.63;5014957;28;10443;-69
2021/12/16 11:47:01;;;;;;;;;16.00;13.75;;;;;9.81;100.00;103696.31;5006997;28;10207;-69
2021/12/16 11:49:44;;;;;;;;;18.50;17.25;;;;;9.85;100.00;103691.53;5007355;28;10271;-69
2021/12/16 11:52:15;;;;;;;;;19.75;19.25;;;;;9.91;100.00;103693.75;5006415;28;10421;-69
2021/12/16 11:54:47;;;;;;;;;17.75;17.00;;;;;9.90;100.00;103699.28;5007720;28;11071;-71
2021/12/16 11:57:20;;;;;;;;;18.25;16.00;;;;;9.90;100.00;103702.00;5009933;28;10415;-70
2021/12/16 11:59:48;;;;;;;;;13.75;12.00;;;;;9.91;100.00;103696.47;5008157;28;11003;-72
2021/12/16 12:02:37;;;;;;;;;19.75;17.75;;;;;9.89;100.00;103690.31;5008040;28;10094;-70
2021/12/16 12:05:25;;;;;;;;;21.75;17.50;;;;;9.90;100.00;103689.34;5008915;28;10222;-70
2021/12/16 12:08:00;;;;;;;;;19.00;17.50;;;;;9.92;100.00;103692.81;5009611;28;10133;-69
2021/12/16 12:10:38;;;;;;;;;21.00;19.25;;;;;9.95;100.00;103691.72;5009667;28;10330;-69
2021/12/16 12:13:11;;;;;;;;;23.50;20.00;;;;;9.95;100.00;103686.31;5002479;28;10473;-70
2021/12/16 12:16:07;;;;;;;;;10.75;10.75;;;;;9.97;100.00;103687.91;5005750;28;10432;-71
2021/12/16 12:18:52;;;;;;;;;21.50;19.00;;;;;9.94;100.00;103690.84;5010650;28;10300;-70
2021/12/16 12:21:50;;;;;;;;;24.00;17.75;;;;;9.93;100.00;103689.13;5016907;28;10555;-70
2021/12/16 12:24:32;;;;;;;;;23.50;18.75;;;;;9.93;100.00;103690.97;5018686;28;10294;-68
2021/12/16 12:27:02;;;;;;;;;17.25;16.50;;;;;9.94;100.00;103687.28;5027572;28;10343;-70
2021/12/16 12:29:41;;;;;;;;;19.50;17.50;;;;;9.97;100.00;103689.75;5009016;28;10122;-69
2021/12/16 12:32:13;;;;;;;;;21.50;20.50;;;;;9.98;100.00;103691.50;5008254;28;10334;-70
2021/12/16 12:34:43;;;;;;;;;17.50;17.50;;;;;9.98;100.00;103689.66;5007983;28;10281;-69
2021/12/16 12:37:13;;;;;;;;;14.50;13.25;;;;;10.07;100.00;103688.06;5004961;28;10163;-69
2021/12/16 12:39:46;;;;;;;;;17.25;15.75;;;;;10.12;100.00;103691.28;5004805;28;10041;-70
2021/12/16 12:42:14;;;;;;;;;21.00;12.00;;;;;10.13;100.00;103690.31;5004919;28;10184;-70
2021/12/16 12:44:42;;;;;;;;;14.00;13.00;;;;;10.26;100.00;103687.59;5016771;28;10113;-70
2021/12/16 12:47:15;;;;;;;;;14.25;13.75;;;;;10.25;100.00;103684.03;5019747;28;10155;-69
2021/12/16 12:49:42;;;;;;;;;13.00;9.00;;;;;10.29;100.00;103690.06;5004532;28;10209;-69
2021/12/16 12:52:13;;;;;;;;;10.75;8.00;;;;;10.34;100.00;103686.00;5005874;28;9886;-70
2021/12/16 12:54:44;;;;;;;;;11.75;10.25;;;;;10.33;99.78;103695.13;5002835;28;10617;-70
2021/12/16 12:57:33;;;;;;;;;11.50;10.50;;;;;10.34;99.59;103690.56;5006786;28;10510;-70
2021/12/16 13:00:02;;;;;;;;;13.50;13.50;;;;;10.36;99.41;103694.00;4997970;28;9942;-69
2021/12/16 13:02:34;;;;;;;;;16.75;14.00;;;;;10.36;99.25;103692.16;5004789;28;9923;-68
2021/12/16 13:05:19;;;;;;;;;11.50;11.25;;;;;10.31;98.68;103702.50;5004879;28;10040;-70
2021/12/16 13:07:55;;;;;;;;;14.25;10.00;;;;;10.31;98.48;103709.75;5005934;28;10593;-71
2021/12/16 13:10:32;;;;;;;;;20.25;18.75;;;;;10.27;98.59;103700.16;5006063;28;9876;-70
2021/12/16 13:13:31;;;;;;;;;18.25;15.75;;;;;10.32;98.76;103714.19;5006580;28;10844;-70
2021/12/16 13:27:24;;;;;;;;;7.50;7.50;;;;;10.31;98.93;103715.16;5004570;28;10696;-70
2021/12/16 13:32:50;;;;;;;;;11.25;11.25;;;;;10.23;98.37;103723.88;5000853;28;9909;-70
2021/12/16 13:35:33;;;;;;;;;12.00;12.00;;;;;10.19;97.84;103714.25;5005129;28;10030;-68
2021/12/16 13:38:06;;;;;;;;;10.25;9.75;;;;;10.21;97.94;103716.88;5003815;28;9947;-71
2021/12/16 13:40:37;;;;;;;;;19.00;13.50;;;;;10.14;97.51;103719.13;5004084;28;10717;-71
2021/12/16 13:43:12;;;;;;;;;11.50;10.75;;;;;10.09;97.44;103710.47;5003277;28;10025;-70
2021/12/16 13:45:58;;;;;;;;;15.75;13.00;;;;;10.07;97.60;103729.53;5003374;28;10486;-70
2021/12/16 13:49:13;;;;;;;;;21.50;19.25;;;;;10.04;97.54;103724.38;5003161;28;9866;-70
2021/12/16 14:03:26;;;;;;;;;13.00;12.50;;;;;9.96;98.34;103729.50;5016471;28;9969;-71
2021/12/16 14:08:41;;;;;;;;;10.00;8.75;;;;;9.95;98.65;103716.09;5020650;28;10004;-72
2021/12/16 14:14:42;;;;;;;;;7.75;6.75;;;;;10.68;97.27;103729.47;4991537;28;9799;-69
2021/12/16 14:18:14;;;;;;;;;8.75;7.25;;;;;10.32;96.27;103723.19;5023440;28;9842;-71
2021/12/16 14:24:09;;;;;;;;;3.75;2.25;;;;;10.14;97.13;103729.94;5021090;28;9765;-70
2021/12/16 14:26:54;;;;;;;;;5.00;5.00;;;;;10.06;97.40;103721.53;5009337;28;10514;-71
2021/12/16 14:37:33;;;;;;;;;4.75;4.75;;;;;9.93;98.10;103724.31;5006912;28;9695;-71
2021/12/16 14:42:58;;;;;;;;;7.00;5.25;;;;;9.84;98.27;103733.09;5012468;28;9688;-71
2021/12/16 14:50:50;;;;;;;;;4.00;4.00;;;;;9.73;99.03;103739.31;5012829;28;9606;-70
2021/12/16 14:53:23;;;;;;;;;5.75;5.25;;;;;9.74;99.13;103741.03;5012413;28;9709;-71
2021/12/16 14:55:52;;;;;;;;;4.00;4.00;;;;;9.71;99.19;103740.41;5021151;28;9725;-70
2021/12/16 14:58:20;;;;;;;;;2.00;2.00;;;;;9.70;99.48;103744.09;5024632;28;9765;-70
2021/12/16 15:00:53;;;;;;;;;2.50;2.00;;;;;9.69;99.66;103739.66;5032603;28;9732;-70
2021/12/16 15:03:23;;;;;;;;;2.00;2.00;;;;;9.66;99.70;103748.81;5019366;28;9632;-71
2021/12/16 15:05:55;;;;;;;;;5.75;4.50;;;;;9.64;99.88;103745.38;5024789;28;9761;-70
2021/12/16 15:08:46;;;;;;;;;4.00;4.00;;;;;9.55;100.00;103736.09;5020097;28;9958;-70
2021/12/16 15:11:25;;;;;;;;;4.00;3.75;;;;;9.56;100.00;103742.38;5031743;28;10644;-71
2021/12/16 15:13:57;;;;;;;;;4.00;1.00;;;;;9.53;100.00;103739.88;5020431;28;9690;-70